createdAt,value
2023-11-12T00:00:08.820Z,4.86
2023-11-12T00:02:35.617Z,4.83
2023-11-12T00:05:02.400Z,4.81
2023-11-12T00:07:29.388Z,4.82
2023-11-12T00:09:56.127Z,4.83
2023-11-12T00:12:23.713Z,4.82
2023-11-12T00:14:51.212Z,4.79
2023-11-12T00:17:18.388Z,4.79
2023-11-12T00:19:45.250Z,4.78
2023-11-12T00:22:12.886Z,4.74
2023-11-12T00:24:40.343Z,4.72
2023-11-12T00:27:07.092Z,4.69
2023-11-12T00:29:34.477Z,4.66
2023-11-12T00:32:01.614Z,4.66
2023-11-12T00:34:28.376Z,4.69
2023-11-12T00:36:56.339Z,4.70
2023-11-12T00:39:23.024Z,4.71
2023-11-12T00:41:50.132Z,4.70
2023-11-12T00:44:18.260Z,4.70
2023-11-12T00:46:45.174Z,4.70
2023-11-12T00:49:11.916Z,4.69
2023-11-12T00:51:38.727Z,4.68
2023-11-12T00:54:05.649Z,4.69
2023-11-12T00:56:32.692Z,4.69
2023-11-12T00:58:59.820Z,4.69
2023-11-12T01:01:27.053Z,4.70
2023-11-12T01:03:56.449Z,4.70
2023-11-12T01:06:23.429Z,4.69
2023-11-12T01:08:50.412Z,4.69
2023-11-12T01:11:17.233Z,4.65
2023-11-12T01:13:44.349Z,4.63
2023-11-12T01:16:11.308Z,4.62
2023-11-12T01:18:40.989Z,4.60
2023-11-12T01:21:08.095Z,4.61
2023-11-12T01:23:35.348Z,4.63
2023-11-12T01:26:02.394Z,4.62
2023-11-12T01:28:34.801Z,4.62
2023-11-12T01:31:02.808Z,4.64
2023-11-12T01:33:30.202Z,4.63
2023-11-12T01:35:57.421Z,4.61
2023-11-12T01:38:24.375Z,4.60
2023-11-12T01:40:51.448Z,4.61
2023-11-12T01:43:19.906Z,4.62
2023-11-12T01:45:46.641Z,4.62
2023-11-12T01:48:14.607Z,4.65
2023-11-12T01:50:43.263Z,4.65
2023-11-12T01:53:13.822Z,4.63
2023-11-12T01:55:41.500Z,4.64
2023-11-12T01:58:12.229Z,4.62
2023-11-12T02:00:40.371Z,4.60
2023-11-12T02:03:09.678Z,4.55
2023-11-12T02:05:36.717Z,4.53
2023-11-12T02:08:06.658Z,4.52
2023-11-12T02:10:36.208Z,4.52
2023-11-12T02:13:07.512Z,4.53
2023-11-12T02:15:34.924Z,4.53
2023-11-12T02:18:01.800Z,4.53
2023-11-12T02:20:28.525Z,4.53
2023-11-12T02:22:55.356Z,4.50
2023-11-12T02:25:22.296Z,4.47
2023-11-12T02:27:49.216Z,4.47
2023-11-12T02:30:19.419Z,4.47
2023-11-12T02:32:46.296Z,4.47
2023-11-12T02:35:13.766Z,4.47
2023-11-12T02:37:40.708Z,4.45
2023-11-12T02:40:08.652Z,4.44
2023-11-12T02:42:37.093Z,4.43
2023-11-12T02:45:05.590Z,4.42
2023-11-12T02:47:32.832Z,4.41
2023-11-12T02:50:06.158Z,4.41
2023-11-12T02:52:33.737Z,4.43
2023-11-12T02:55:00.984Z,4.43
2023-11-12T02:57:28.188Z,4.43
2023-11-12T02:59:55.192Z,4.41
2023-11-12T03:02:22.792Z,4.39
2023-11-12T03:04:51.288Z,4.40
2023-11-12T03:07:20.921Z,4.40
2023-11-12T03:09:48.266Z,4.35
2023-11-12T03:12:15.921Z,4.33
2023-11-12T03:14:43.838Z,4.32
2023-11-12T03:17:10.672Z,4.35
2023-11-12T03:19:38.291Z,4.36
2023-11-12T03:22:05.394Z,4.35
2023-11-12T03:24:32.553Z,4.33
2023-11-12T03:26:59.542Z,4.31
2023-11-12T03:29:26.251Z,4.27
2023-11-12T03:31:54.656Z,4.26
2023-11-12T03:34:22.672Z,4.25
2023-11-12T03:36:49.761Z,4.26
2023-11-12T03:39:17.951Z,4.28
2023-11-12T03:41:44.834Z,4.30
2023-11-12T03:44:11.618Z,4.31
2023-11-12T03:46:38.500Z,4.29
2023-11-12T03:49:05.363Z,4.27
2023-11-12T03:51:35.760Z,4.26
2023-11-12T03:54:02.984Z,4.23
2023-11-12T03:56:30.540Z,4.20
2023-11-12T03:58:57.757Z,4.20
2023-11-12T04:01:24.888Z,4.21
2023-11-12T04:03:52.338Z,4.21
2023-11-12T04:06:20.326Z,4.21
2023-11-12T04:08:47.234Z,4.20
2023-11-12T04:11:14.363Z,4.21
2023-11-12T04:13:41.181Z,4.22
2023-11-12T04:16:09.211Z,4.20
2023-11-12T04:18:36.735Z,4.12
2023-11-12T04:21:06.235Z,4.08
2023-11-12T04:23:33.155Z,4.06
2023-11-12T04:25:59.977Z,4.05
2023-11-12T04:28:27.678Z,4.06
2023-11-12T04:30:55.589Z,4.05
2023-11-12T04:33:22.451Z,4.06
2023-11-12T04:35:50.583Z,4.06
2023-11-12T04:38:18.279Z,4.05
2023-11-12T04:40:47.626Z,4.03
2023-11-12T04:43:16.311Z,4.03
2023-11-12T04:45:43.457Z,4.04
2023-11-12T04:48:11.849Z,4.04
2023-11-12T04:50:39.262Z,4.02
2023-11-12T04:53:06.804Z,4.00
2023-11-12T04:55:34.645Z,3.98
2023-11-12T04:58:08.035Z,3.97
2023-11-12T05:00:34.818Z,3.98
2023-11-12T05:03:05.509Z,4.00
2023-11-12T05:05:32.638Z,4.01
2023-11-12T05:07:59.526Z,3.98
2023-11-12T05:10:44.116Z,3.97
2023-11-12T05:13:14.007Z,3.96
2023-11-12T05:15:41.552Z,3.95
2023-11-12T05:18:08.835Z,3.95
2023-11-12T05:20:35.724Z,3.94
2023-11-12T05:23:02.511Z,3.95
2023-11-12T05:25:30.234Z,3.95
2023-11-12T05:27:56.971Z,3.94
2023-11-12T05:30:23.853Z,3.94
2023-11-12T05:32:51.476Z,3.92
2023-11-12T05:35:19.703Z,3.90
2023-11-12T05:37:48.042Z,3.88
2023-11-12T05:40:15.128Z,3.88
2023-11-12T05:42:42.750Z,3.87
2023-11-12T05:45:10.436Z,3.87
2023-11-12T05:47:37.316Z,3.88
2023-11-12T05:50:04.482Z,3.90
2023-11-12T05:52:31.215Z,3.92
2023-11-12T05:54:58.003Z,3.93
2023-11-12T05:57:24.850Z,3.95
2023-11-12T05:59:51.592Z,3.96
2023-11-12T06:02:18.307Z,3.95
2023-11-12T06:04:45.105Z,3.94
2023-11-12T06:07:12.885Z,3.95
2023-11-12T06:09:39.692Z,3.93
2023-11-12T06:12:08.384Z,3.93
2023-11-12T06:14:37.150Z,3.96
2023-11-12T06:17:06.885Z,3.97
2023-11-12T06:19:33.689Z,4.04
2023-11-12T06:22:01.743Z,4.07
2023-11-12T06:24:29.219Z,4.07
2023-11-12T06:26:56.124Z,4.09
2023-11-12T06:29:24.378Z,4.11
2023-11-12T06:31:51.802Z,4.11
2023-11-12T06:34:19.458Z,4.14
2023-11-12T06:36:46.380Z,4.16
2023-11-12T06:39:14.129Z,4.22
2023-11-12T06:41:41.797Z,4.28
2023-11-12T06:44:13.081Z,4.33
2023-11-12T06:46:46.589Z,4.38
2023-11-12T06:49:14.451Z,4.41
2023-11-12T06:51:41.255Z,4.42
2023-11-12T06:54:09.534Z,4.44
2023-11-12T06:56:36.282Z,4.45
2023-11-12T06:59:03.477Z,4.45
2023-11-12T07:01:30.428Z,4.46
2023-11-12T07:03:57.712Z,4.47
2023-11-12T07:06:24.484Z,4.47
2023-11-12T07:08:51.198Z,4.51
2023-11-12T07:11:17.905Z,4.57
2023-11-12T07:13:44.697Z,4.64
2023-11-12T07:16:17.047Z,4.72
2023-11-12T07:21:25.328Z,4.85
2023-11-12T07:23:52.239Z,4.88
2023-11-12T07:26:19.014Z,4.89
2023-11-12T07:28:46.132Z,4.91
2023-11-12T07:31:14.206Z,4.92
2023-11-12T07:33:40.939Z,4.92
2023-11-12T07:36:08.045Z,4.94
2023-11-12T07:38:35.873Z,4.95
2023-11-12T07:41:03.662Z,4.93
2023-11-12T07:43:30.383Z,4.94
2023-11-12T07:45:57.582Z,4.95
2023-11-12T07:48:24.366Z,4.97
2023-11-12T07:50:51.386Z,4.93
2023-11-12T07:53:18.152Z,4.89
2023-11-12T07:55:44.991Z,4.85
2023-11-12T07:58:11.862Z,4.78
2023-11-12T08:00:38.681Z,4.74
2023-11-12T08:03:05.508Z,4.69
2023-11-12T08:05:32.433Z,4.67
2023-11-12T08:07:59.213Z,4.66
2023-11-12T08:10:25.908Z,4.66
2023-11-12T08:12:52.798Z,4.66
2023-11-12T08:15:19.503Z,4.67
2023-11-12T08:17:47.982Z,4.71
2023-11-12T08:20:15.999Z,4.76
2023-11-12T08:22:43.974Z,4.78
2023-11-12T08:25:11.082Z,4.81
2023-11-12T08:27:38.813Z,4.80
2023-11-12T08:30:06.281Z,4.80
2023-11-12T08:32:35.635Z,4.83
2023-11-12T08:35:02.663Z,4.87
2023-11-12T08:37:29.529Z,4.92
2023-11-12T08:39:56.436Z,4.96
2023-11-12T08:42:24.683Z,5.02
2023-11-12T08:44:53.591Z,5.07
2023-11-12T08:47:21.293Z,5.15
2023-11-12T08:49:48.278Z,5.23
2023-11-12T08:52:15.439Z,5.28
2023-11-12T08:54:42.737Z,5.35
2023-11-12T08:57:12.743Z,5.44
2023-11-12T08:59:40.349Z,5.52
2023-11-12T09:02:07.194Z,5.63
2023-11-12T09:04:37.296Z,5.72
2023-11-12T09:07:04.537Z,5.95
2023-11-12T09:09:33.610Z,6.27
2023-11-12T09:12:00.380Z,6.80
2023-11-12T09:14:27.197Z,7.23
2023-11-12T09:16:54.271Z,7.58
2023-11-12T09:19:21.087Z,7.60
2023-11-12T09:21:47.907Z,7.50
2023-11-12T09:24:14.720Z,7.43
2023-11-12T09:26:41.525Z,7.63
2023-11-12T09:29:09.917Z,7.81
2023-11-12T09:31:36.673Z,7.94
2023-11-12T09:34:03.671Z,7.90
2023-11-12T09:36:30.587Z,7.79
2023-11-12T09:38:57.382Z,7.78
2023-11-12T09:41:24.751Z,7.71
2023-11-12T09:43:54.685Z,7.77
2023-11-12T09:46:23.637Z,8.20
2023-11-12T09:48:52.642Z,9.07
2023-11-12T09:51:20.817Z,9.21
2023-11-12T09:53:50.990Z,9.12
2023-11-12T09:56:17.945Z,9.09
2023-11-12T09:58:46.269Z,9.17
2023-11-12T10:01:14.252Z,9.13
2023-11-12T10:03:47.212Z,9.12
2023-11-12T10:06:14.600Z,9.28
2023-11-12T10:08:41.921Z,9.59
2023-11-12T10:11:19.109Z,10.27
2023-11-12T10:13:47.878Z,10.88
2023-11-12T10:16:29.629Z,11.13
2023-11-12T10:19:13.980Z,11.11
2023-11-12T10:21:58.037Z,11.03
2023-11-12T10:24:29.850Z,10.85
2023-11-12T10:27:01.085Z,10.74
2023-11-12T10:29:28.220Z,10.51
2023-11-12T10:31:55.297Z,10.36
2023-11-12T10:34:24.306Z,10.13
2023-11-12T10:37:20.029Z,10.00
2023-11-12T10:39:47.564Z,10.30
2023-11-12T10:42:14.302Z,10.53
2023-11-12T10:44:41.597Z,10.66
2023-11-12T10:47:12.082Z,10.80
2023-11-12T10:49:41.343Z,11.23
2023-11-12T10:52:09.355Z,12.70
2023-11-12T10:54:37.652Z,13.70
2023-11-12T10:57:05.493Z,13.82
2023-11-12T10:59:35.845Z,13.99
2023-11-12T11:02:03.782Z,14.02
2023-11-12T11:04:34.303Z,14.32
2023-11-12T11:07:01.496Z,14.88
2023-11-12T11:09:29.192Z,15.16
2023-11-12T11:11:56.835Z,14.93
2023-11-12T11:14:33.243Z,14.62
2023-11-12T11:17:00.444Z,14.21
2023-11-12T11:19:45.343Z,13.96
2023-11-12T11:22:26.994Z,13.65
2023-11-12T11:24:55.578Z,13.48
2023-11-12T11:27:26.803Z,13.24
2023-11-12T11:30:13.709Z,12.92
2023-11-12T11:32:55.071Z,12.49
2023-11-12T11:35:24.925Z,12.04
2023-11-12T11:38:13.623Z,11.57
2023-11-12T11:40:48.451Z,11.07
2023-11-12T11:43:24.131Z,10.79
2023-11-12T11:46:11.331Z,10.41
2023-11-12T11:48:44.549Z,10.03
2023-11-12T11:51:34.465Z,9.75
2023-11-12T11:54:05.477Z,9.42
2023-11-12T11:56:32.992Z,9.12
2023-11-12T11:59:00.134Z,8.97
2023-11-12T12:01:26.925Z,8.90
2023-11-12T12:04:06.651Z,8.78
2023-11-12T12:06:34.153Z,8.78
2023-11-12T12:09:01.087Z,8.78
2023-11-12T12:11:28.001Z,8.77
2023-11-12T12:13:57.288Z,8.76
2023-11-12T12:16:32.104Z,8.65
2023-11-12T12:19:00.020Z,8.63
2023-11-12T12:21:26.897Z,8.59
2023-11-12T12:23:54.131Z,8.44
2023-11-12T12:26:25.350Z,8.31
2023-11-12T12:28:52.992Z,8.30
2023-11-12T12:31:20.760Z,8.19
2023-11-12T12:34:08.744Z,8.21
2023-11-12T12:36:36.513Z,8.20
2023-11-12T12:39:11.648Z,8.14
2023-11-12T12:41:38.560Z,8.06
2023-11-12T12:44:05.342Z,7.97
2023-11-12T12:46:52.353Z,7.82
2023-11-12T12:49:33.072Z,7.83
2023-11-12T12:52:03.115Z,7.81
2023-11-12T12:54:31.162Z,7.69
2023-11-12T12:56:59.999Z,7.61
2023-11-12T12:59:35.562Z,7.46
2023-11-12T13:02:03.283Z,7.37
2023-11-12T13:04:31.326Z,7.25
2023-11-12T13:07:00.877Z,7.19
2023-11-12T13:09:32.354Z,7.10
2023-11-12T13:11:59.242Z,7.02
2023-11-12T13:14:26.437Z,6.96
2023-11-12T13:16:54.503Z,6.91
2023-11-12T13:19:24.151Z,6.83
2023-11-12T13:21:57.075Z,6.76
2023-11-12T13:24:29.765Z,6.69
2023-11-12T13:26:58.209Z,6.68
2023-11-12T13:29:27.656Z,6.60
2023-11-12T13:31:57.472Z,6.51
2023-11-12T13:34:24.575Z,6.45
2023-11-12T13:36:51.886Z,6.39
2023-11-12T13:39:18.871Z,6.33
2023-11-12T13:41:48.748Z,6.25
2023-11-12T13:44:15.925Z,6.17
2023-11-12T13:46:43.500Z,6.09
2023-11-12T13:49:10.467Z,6.07
2023-11-12T13:51:41.406Z,6.05
2023-11-12T13:54:11.043Z,6.01
2023-11-12T13:56:39.555Z,5.96
2023-11-12T13:59:06.455Z,5.91
2023-11-12T14:01:33.379Z,5.84
2023-11-12T14:04:01.165Z,5.79
2023-11-12T14:06:28.193Z,5.74
2023-11-12T14:08:55.762Z,5.66
2023-11-12T14:11:22.872Z,5.60
2023-11-12T14:13:51.335Z,5.54
2023-11-12T14:16:23.726Z,5.49
2023-11-12T14:18:50.563Z,5.45
2023-11-12T14:21:18.429Z,5.41
2023-11-12T14:23:45.353Z,5.36
2023-11-12T14:26:13.252Z,5.32
2023-11-12T14:28:41.817Z,5.27
2023-11-12T14:31:11.250Z,5.21
2023-11-12T14:33:40.387Z,5.16
2023-11-12T14:36:10.947Z,5.10
2023-11-12T14:38:37.900Z,5.05
2023-11-12T14:41:05.009Z,4.98
2023-11-12T14:43:38.406Z,4.90
2023-11-12T14:46:06.213Z,4.83
2023-11-12T14:48:34.019Z,4.77
2023-11-12T14:51:05.750Z,4.70
2023-11-12T14:53:32.966Z,4.64
2023-11-12T14:55:59.680Z,4.58
2023-11-12T14:58:26.868Z,4.50
2023-11-12T15:00:55.160Z,4.42
2023-11-12T15:03:23.632Z,4.34
2023-11-12T15:05:50.566Z,4.26
2023-11-12T15:08:17.323Z,4.19
2023-11-12T15:10:44.039Z,4.13
2023-11-12T15:13:10.737Z,4.07
2023-11-12T15:15:38.023Z,4.01
2023-11-12T15:18:07.133Z,3.95
2023-11-12T15:20:35.687Z,3.90
2023-11-12T15:23:02.446Z,3.85
2023-11-12T15:25:29.321Z,3.81
2023-11-12T15:27:56.149Z,3.77
2023-11-12T15:30:25.149Z,3.73
2023-11-12T15:32:52.096Z,3.70
2023-11-12T15:35:19.749Z,3.69
2023-11-12T15:37:46.714Z,3.64
2023-11-12T15:40:17.826Z,3.59
2023-11-12T15:42:45.833Z,3.55
2023-11-12T15:45:16.328Z,3.53
2023-11-12T15:47:47.825Z,3.53
2023-11-12T15:50:15.086Z,3.54
2023-11-12T15:52:42.805Z,3.55
2023-11-12T15:55:13.106Z,3.57
2023-11-12T15:57:41.322Z,3.61
2023-11-12T16:00:13.767Z,3.64
2023-11-12T16:02:41.821Z,3.67
2023-11-12T16:05:10.315Z,3.69
2023-11-12T16:07:37.066Z,3.71
2023-11-12T16:10:05.352Z,3.73
2023-11-12T16:12:33.690Z,3.74
2023-11-12T16:15:05.133Z,3.76
2023-11-12T16:17:32.601Z,3.77
2023-11-12T16:20:00.133Z,3.80
2023-11-12T16:22:26.946Z,3.82
2023-11-12T16:24:53.659Z,3.83
2023-11-12T16:27:22.463Z,3.83
2023-11-12T16:29:49.386Z,3.81
2023-11-12T16:32:20.011Z,3.80
2023-11-12T16:34:46.786Z,3.78
2023-11-12T16:37:13.790Z,3.76
2023-11-12T16:39:45.837Z,3.74
2023-11-12T16:42:15.027Z,3.71
2023-11-12T16:44:42.908Z,3.68
2023-11-12T16:47:11.450Z,3.65
2023-11-12T16:49:38.658Z,3.60
2023-11-12T16:52:05.982Z,3.56
2023-11-12T16:54:34.083Z,3.52
2023-11-12T16:57:05.025Z,3.49
2023-11-12T16:59:31.853Z,3.43
2023-11-12T17:01:58.747Z,3.37
2023-11-12T17:04:27.646Z,3.31
2023-11-12T17:06:55.197Z,3.25
2023-11-12T17:09:22.660Z,3.20
2023-11-12T17:11:49.388Z,3.15
2023-11-12T17:14:16.686Z,3.13
2023-11-12T17:16:46.099Z,3.13
2023-11-12T17:19:14.023Z,3.14
2023-11-12T17:21:41.515Z,3.13
2023-11-12T17:24:11.646Z,3.10
2023-11-12T17:26:38.467Z,3.08
2023-11-12T17:29:05.471Z,3.04
2023-11-12T17:31:33.356Z,3.02
2023-11-12T17:34:00.520Z,3.00
2023-11-12T17:36:28.042Z,2.99
2023-11-12T17:38:55.641Z,2.97
2023-11-12T17:41:26.043Z,2.97
2023-11-12T17:43:53.841Z,2.97
2023-11-12T17:46:22.779Z,2.99
2023-11-12T17:48:51.030Z,3.02
2023-11-12T17:51:19.848Z,3.03
2023-11-12T17:53:47.088Z,3.03
2023-11-12T17:56:14.005Z,3.05
2023-11-12T17:58:40.720Z,3.03
2023-11-12T18:01:09.488Z,3.00
2023-11-12T18:03:37.746Z,2.96
2023-11-12T18:06:07.021Z,2.94
2023-11-12T18:08:34.080Z,2.91
2023-11-12T18:11:01.500Z,2.88
2023-11-12T18:13:30.601Z,2.84
2023-11-12T18:15:58.359Z,2.79
2023-11-12T18:18:28.468Z,2.76
2023-11-12T18:20:55.575Z,2.73
2023-11-12T18:23:28.641Z,2.70
2023-11-12T18:26:01.955Z,2.68
2023-11-12T18:28:29.118Z,2.65
2023-11-12T18:30:56.547Z,2.63
2023-11-12T18:33:23.724Z,2.60
2023-11-12T18:35:50.517Z,2.57
2023-11-12T18:38:18.391Z,2.56
2023-11-12T18:40:47.499Z,2.53
2023-11-12T18:43:16.059Z,2.52
2023-11-12T18:45:42.967Z,2.49
2023-11-12T18:48:10.908Z,2.46
2023-11-12T18:50:38.155Z,2.43
2023-11-12T18:53:05.333Z,2.39
2023-11-12T18:55:32.097Z,2.33
2023-11-12T18:57:59.258Z,2.29
2023-11-12T19:00:26.342Z,2.25
2023-11-12T19:02:56.531Z,2.20
2023-11-12T19:05:23.466Z,2.14
2023-11-12T19:07:50.249Z,2.09
2023-11-12T19:10:23.181Z,2.03
2023-11-12T19:12:50.456Z,2.00
2023-11-12T19:15:17.442Z,1.99
2023-11-12T19:17:45.902Z,2.00
2023-11-12T19:20:14.764Z,2.00
2023-11-12T19:22:42.421Z,1.99
2023-11-12T19:25:11.057Z,1.98
2023-11-12T19:27:39.503Z,1.96
2023-11-12T19:30:14.962Z,1.96
2023-11-12T19:32:44.028Z,1.96
2023-11-12T19:35:12.019Z,1.96
2023-11-12T19:37:39.408Z,1.94
2023-11-12T19:40:08.623Z,1.93
2023-11-12T19:42:35.602Z,1.90
2023-11-12T19:45:05.600Z,1.87
2023-11-12T19:47:32.771Z,1.84
2023-11-12T19:50:01.928Z,1.81
2023-11-12T19:52:28.991Z,1.79
2023-11-12T19:54:55.812Z,1.78
2023-11-12T19:57:22.627Z,1.77
2023-11-12T19:59:49.347Z,1.75
2023-11-12T20:02:20.049Z,1.75
2023-11-12T20:04:46.996Z,1.74
2023-11-12T20:07:14.136Z,1.72
2023-11-12T20:09:40.918Z,1.70
2023-11-12T20:12:08.554Z,1.69
2023-11-12T20:14:37.274Z,1.66
2023-11-12T20:17:04.000Z,1.61
2023-11-12T20:19:31.317Z,1.55
2023-11-12T20:21:58.039Z,1.50
2023-11-12T20:24:26.270Z,1.45
2023-11-12T20:26:54.908Z,1.41
2023-11-12T20:29:21.711Z,1.40
2023-11-12T20:31:54.159Z,1.38
2023-11-12T20:34:21.791Z,1.37
2023-11-12T20:36:50.522Z,1.35
2023-11-12T20:39:17.697Z,1.35
2023-11-12T20:41:46.331Z,1.36
2023-11-12T20:44:14.649Z,1.35
2023-11-12T20:46:45.502Z,1.33
2023-11-12T20:49:17.598Z,1.30
2023-11-12T20:51:46.043Z,1.27
2023-11-12T20:54:14.016Z,1.23
2023-11-12T20:56:41.083Z,1.22
2023-11-12T20:59:12.883Z,1.21
2023-11-12T21:01:39.942Z,1.18
2023-11-12T21:04:11.444Z,1.15
2023-11-12T21:06:41.553Z,1.12
2023-11-12T21:09:09.069Z,1.09
2023-11-12T21:11:39.838Z,1.08
2023-11-12T21:14:10.776Z,1.05
2023-11-12T21:16:38.163Z,0.99
2023-11-12T21:19:06.208Z,0.93
2023-11-12T21:21:33.695Z,0.91
2023-11-12T21:24:05.526Z,0.95
2023-11-12T21:26:33.896Z,0.96
2023-11-12T21:29:00.747Z,0.93
2023-11-12T21:31:27.853Z,0.91
2023-11-12T21:33:54.944Z,0.88
2023-11-12T21:36:21.675Z,0.84
2023-11-12T21:38:48.362Z,0.79
2023-11-12T21:41:15.178Z,0.73
2023-11-12T21:43:42.312Z,0.65
2023-11-12T21:46:10.135Z,0.57
2023-11-12T21:48:40.194Z,0.48
2023-11-12T21:51:07.277Z,0.38
2023-11-12T21:53:36.069Z,0.29
2023-11-12T21:56:04.014Z,0.25
2023-11-12T21:58:31.108Z,0.24
2023-11-12T22:00:58.374Z,0.22
2023-11-12T22:03:26.582Z,0.24
2023-11-12T22:05:54.351Z,0.22
2023-11-12T22:08:22.273Z,0.20
2023-11-12T22:10:49.913Z,0.20
2023-11-12T22:13:18.422Z,0.19
2023-11-12T22:15:45.675Z,0.23
2023-11-12T22:18:12.553Z,0.28
2023-11-12T22:20:40.885Z,0.29
2023-11-12T22:23:08.074Z,0.29
2023-11-12T22:25:34.995Z,0.28
2023-11-12T22:28:01.734Z,0.26
2023-11-12T22:30:28.483Z,0.21
2023-11-12T22:32:56.394Z,0.15
2023-11-12T22:35:23.209Z,0.08
2023-11-12T22:37:50.196Z,0.02
2023-11-12T22:40:20.334Z,-0.01
2023-11-12T22:42:47.277Z,-0.04
2023-11-12T22:45:14.121Z,-0.07
2023-11-12T22:47:42.260Z,-0.11
2023-11-12T22:50:12.870Z,-0.15
2023-11-12T22:52:39.738Z,-0.21
2023-11-12T22:55:06.807Z,-0.24
2023-11-12T22:57:35.271Z,-0.25
2023-11-12T23:00:06.399Z,-0.27
2023-11-12T23:02:33.319Z,-0.32
2023-11-12T23:05:00.656Z,-0.41
2023-11-12T23:07:27.816Z,-0.50
2023-11-12T23:10:07.445Z,-0.58
2023-11-12T23:12:34.605Z,-0.58
2023-11-12T23:15:01.737Z,-0.57
2023-11-12T23:17:28.415Z,-0.57
2023-11-12T23:19:55.111Z,-0.58
2023-11-12T23:22:22.404Z,-0.64
2023-11-12T23:24:49.237Z,-0.64
2023-11-12T23:27:16.504Z,-0.63
2023-11-12T23:29:48.930Z,-0.61
2023-11-12T23:32:15.959Z,-0.61
2023-11-12T23:34:43.400Z,-0.62
2023-11-12T23:37:10.709Z,-0.64
2023-11-12T23:39:37.836Z,-0.65
2023-11-12T23:42:05.193Z,-0.65
2023-11-12T23:44:31.928Z,-0.66
2023-11-12T23:46:58.717Z,-0.67
2023-11-12T23:49:25.475Z,-0.66
2023-11-12T23:51:52.336Z,-0.64
2023-11-12T23:54:19.070Z,-0.62
2023-11-12T23:56:48.355Z,-0.59
2023-11-12T23:59:15.278Z,-0.53
